Time;durP1;ratioP1;P1;durP2;ratioP2;P2;SDS_P1;SDS_P2;PMS_P1;PMS_P2;Temp;Humidity;BMP_temperature;BMP_pressure;BME280_temperature;BME280_humidity;BME280_pressure;Samples;Min_cycle;Max_cycle;Signal;HPM_P1;HPM_P2
2024/01/13 00:01:08;;;;;;;;;;;17.10;60.70;;;;;;5044796;28;923;-69
2024/01/13 00:03:34;;;;;;;;;;;17.10;60.80;;;;;;5070595;28;1739;-69
2024/01/13 00:05:59;;;;;;;;;;;17.10;60.80;;;;;;5071939;28;1308;-69
2024/01/13 00:08:25;;;;;;;;;;;17.10;60.80;;;;;;5041837;28;1228;-66
2024/01/13 00:10:50;;;;;;;;;;;17.00;60.70;;;;;;5039886;28;1175;-68
2024/01/13 00:13:16;;;;;;;;;;;17.10;60.80;;;;;;5040846;28;1708;-68
2024/01/13 00:15:41;;;;;;;;;;;17.00;60.80;;;;;;5042218;28;1052;-69
2024/01/13 00:18:07;;;;;;;;;;;17.00;60.80;;;;;;5041171;28;1942;-68
2024/01/13 00:20:32;;;;;;;;;;;17.00;60.80;;;;;;5041390;28;1267;-68
2024/01/13 00:22:58;;;;;;;;;;;17.00;60.80;;;;;;5041195;28;1292;-69
2024/01/13 00:25:23;;;;;;;;;;;17.00;60.80;;;;;;5044224;28;1351;-70
2024/01/13 00:27:49;;;;;;;;;;;17.00;60.80;;;;;;5073726;28;1257;-65
2024/01/13 00:30:15;;;;;;;;;;;17.00;60.80;;;;;;5041884;28;1519;-67
2024/01/13 00:32:40;;;;;;;;;;;17.00;60.90;;;;;;5036277;28;1658;-68
2024/01/13 00:35:06;;;;;;;;;;;17.00;60.90;;;;;;5040958;28;1457;-65
2024/01/13 00:37:31;;;;;;;;;;;17.00;60.90;;;;;;5040386;28;1882;-66
2024/01/13 00:39:57;;;;;;;;;;;17.00;60.90;;;;;;5042002;28;1538;-65
2024/01/13 00:42:22;;;;;;;;;;;17.00;60.90;;;;;;5040447;28;1384;-65
2024/01/13 00:44:48;;;;;;;;;;;17.00;60.90;;;;;;5041309;28;1491;-65
2024/01/13 00:47:13;;;;;;;;;;;17.00;60.90;;;;;;5043743;28;1449;-66
2024/01/13 00:49:38;;;;;;;;;;;17.00;60.90;;;;;;5055781;28;1487;-66
2024/01/13 00:52:04;;;;;;;;;;;17.00;60.90;;;;;;5072395;28;1556;-66
2024/01/13 00:54:30;;;;;;;;;;;17.00;60.90;;;;;;5041532;28;1438;-66
2024/01/13 00:56:55;;;;;;;;;;;17.00;61.00;;;;;;5070685;28;1898;-67
2024/01/13 00:59:20;;;;;;;;;;;17.00;61.00;;;;;;5041814;28;1370;-66
2024/01/13 01:01:46;;;;;;;;;;;17.00;61.00;;;;;;5039807;28;1442;-67
2024/01/13 01:04:11;;;;;;;;;;;17.00;61.00;;;;;;5041952;28;1292;-68
2024/01/13 01:06:37;;;;;;;;;;;17.00;61.00;;;;;;5042243;28;1278;-65
2024/01/13 01:09:02;;;;;;;;;;;17.00;61.00;;;;;;5037704;28;1442;-66
2024/01/13 01:11:28;;;;;;;;;;;17.00;61.00;;;;;;5039683;28;1586;-66
2024/01/13 01:13:53;;;;;;;;;;;17.00;61.80;;;;;;5041179;28;1398;-66
2024/01/13 01:16:19;;;;;;;;;;;17.00;61.10;;;;;;5041945;28;1959;-65
2024/01/13 01:18:44;;;;;;;;;;;17.00;61.10;;;;;;5039245;28;1468;-68
2024/01/13 01:21:10;;;;;;;;;;;17.00;61.10;;;;;;5038563;28;1429;-68
2024/01/13 01:23:36;;;;;;;;;;;17.00;61.10;;;;;;5047883;28;1554;-69
2024/01/13 01:26:01;;;;;;;;;;;17.00;61.10;;;;;;5043353;28;1515;-69
2024/01/13 01:28:27;;;;;;;;;;;17.00;61.10;;;;;;5038307;28;1427;-69
2024/01/13 01:30:52;;;;;;;;;;;17.00;61.20;;;;;;5039243;28;1592;-69
2024/01/13 01:33:17;;;;;;;;;;;17.00;61.10;;;;;;5039683;28;2047;-68
2024/01/13 01:35:43;;;;;;;;;;;17.00;61.20;;;;;;5037942;28;1336;-68
2024/01/13 01:38:08;;;;;;;;;;;17.00;61.10;;;;;;5040671;28;1898;-69
2024/01/13 01:40:34;;;;;;;;;;;17.00;61.10;;;;;;5070814;28;1160;-69
2024/01/13 01:42:59;;;;;;;;;;;17.00;61.10;;;;;;5047009;28;1307;-69
2024/01/13 01:45:25;;;;;;;;;;;17.00;61.90;;;;;;5041701;28;1264;-69
2024/01/13 01:47:50;;;;;;;;;;;17.00;61.20;;;;;;5038876;28;1317;-68
2024/01/13 01:50:16;;;;;;;;;;;17.00;61.20;;;;;;5037427;28;1229;-69
2024/01/13 01:52:41;;;;;;;;;;;16.90;61.20;;;;;;5038009;28;1472;-68
2024/01/13 01:55:07;;;;;;;;;;;17.00;61.20;;;;;;5037037;28;1391;-68
2024/01/13 01:57:35;;;;;;;;;;;16.90;61.10;;;;;;5038635;28;1891;-68
2024/01/13 02:00:00;;;;;;;;;;;16.90;61.10;;;;;;5070125;28;1262;-68
2024/01/13 02:02:26;;;;;;;;;;;17.00;61.20;;;;;;5040932;28;1237;-67
2024/01/13 02:04:52;;;;;;;;;;;16.90;61.20;;;;;;5070397;28;1557;-67
2024/01/13 02:07:17;;;;;;;;;;;17.00;61.30;;;;;;5068773;28;1323;-67
2024/01/13 02:09:43;;;;;;;;;;;16.90;61.20;;;;;;5039777;28;1584;-67
2024/01/13 02:12:08;;;;;;;;;;;16.90;61.20;;;;;;5038702;28;1363;-67
2024/01/13 02:14:34;;;;;;;;;;;16.90;61.20;;;;;;5042287;28;1370;-67
2024/01/13 02:16:59;;;;;;;;;;;17.00;61.20;;;;;;5038015;28;1909;-68
2024/01/13 02:19:30;;;;;;;;;;;16.90;61.20;;;;;;5039208;28;1359;-68
2024/01/13 02:21:55;;;;;;;;;;;16.90;61.20;;;;;;5061878;28;1284;-68
2024/01/13 02:24:21;;;;;;;;;;;16.90;61.20;;;;;;5037541;28;1566;-68
2024/01/13 02:26:46;;;;;;;;;;;16.90;61.20;;;;;;5039201;28;1405;-67
2024/01/13 02:29:12;;;;;;;;;;;16.90;61.20;;;;;;5037956;28;1187;-67
2024/01/13 02:31:38;;;;;;;;;;;16.90;61.20;;;;;;5039205;28;1515;-67
2024/01/13 02:34:03;;;;;;;;;;;16.90;61.30;;;;;;5068740;28;1689;-65
2024/01/13 02:36:28;;;;;;;;;;;16.90;61.20;;;;;;5039260;28;1894;-66
2024/01/13 02:38:54;;;;;;;;;;;16.90;61.30;;;;;;5038374;28;1430;-66
2024/01/13 02:41:19;;;;;;;;;;;16.90;61.20;;;;;;5039410;28;1358;-65
2024/01/13 02:43:45;;;;;;;;;;;16.90;61.30;;;;;;5036243;28;1456;-66
2024/01/13 02:46:10;;;;;;;;;;;16.90;61.30;;;;;;5038230;28;1456;-67
2024/01/13 02:48:40;;;;;;;;;;;16.90;61.30;;;;;;5037963;28;1128;-69
2024/01/13 02:51:08;;;;;;;;;;;16.90;61.30;;;;;;5039370;28;1428;-70
2024/01/13 02:53:33;;;;;;;;;;;16.90;61.30;;;;;;5069466;28;1312;-68
2024/01/13 02:55:59;;;;;;;;;;;16.90;61.30;;;;;;5038714;28;987;-67
2024/01/13 02:58:24;;;;;;;;;;;16.90;61.40;;;;;;5038966;28;2005;-68
2024/01/13 03:00:50;;;;;;;;;;;16.90;61.40;;;;;;5038290;28;1458;-68
2024/01/13 03:03:15;;;;;;;;;;;16.90;61.40;;;;;;5040801;28;1398;-68
2024/01/13 03:05:41;;;;;;;;;;;16.90;61.40;;;;;;5040652;28;1430;-67
2024/01/13 03:08:06;;;;;;;;;;;16.90;61.40;;;;;;5043489;28;1457;-66
2024/01/13 03:10:31;;;;;;;;;;;16.90;61.40;;;;;;5043744;28;1408;-66
2024/01/13 03:12:57;;;;;;;;;;;16.90;61.40;;;;;;5045112;28;1465;-67
2024/01/13 03:15:22;;;;;;;;;;;16.90;61.40;;;;;;5040397;28;1534;-68
2024/01/13 03:17:48;;;;;;;;;;;16.90;61.40;;;;;;5041381;28;1914;-65
2024/01/13 03:20:13;;;;;;;;;;;16.90;61.40;;;;;;5041034;28;1505;-65
2024/01/13 03:22:39;;;;;;;;;;;16.90;61.40;;;;;;5042947;28;1332;-68
2024/01/13 03:25:04;;;;;;;;;;;16.90;61.40;;;;;;5041173;28;1352;-67
2024/01/13 03:27:30;;;;;;;;;;;16.90;61.40;;;;;;5041453;28;1347;-67
2024/01/13 03:29:55;;;;;;;;;;;16.90;61.40;;;;;;5038182;28;1334;-68
2024/01/13 03:32:21;;;;;;;;;;;16.90;61.40;;;;;;5042304;28;1347;-66
2024/01/13 03:34:46;;;;;;;;;;;16.90;61.40;;;;;;5073108;28;1543;-67
2024/01/13 03:37:12;;;;;;;;;;;16.90;61.40;;;;;;5041231;28;1934;-67
2024/01/13 03:39:37;;;;;;;;;;;16.90;61.40;;;;;;5042954;28;1240;-67
2024/01/13 03:42:03;;;;;;;;;;;16.90;62.10;;;;;;5043163;28;1341;-67
2024/01/13 03:44:29;;;;;;;;;;;16.90;61.40;;;;;;5041541;28;1484;-67
2024/01/13 03:46:54;;;;;;;;;;;16.90;61.40;;;;;;5044285;28;1452;-67
2024/01/13 03:49:20;;;;;;;;;;;16.90;61.40;;;;;;5042839;28;1049;-67
2024/01/13 03:51:45;;;;;;;;;;;16.90;61.40;;;;;;5043657;28;1608;-67
2024/01/13 03:54:11;;;;;;;;;;;16.90;61.40;;;;;;5043896;28;1268;-68
2024/01/13 03:56:36;;;;;;;;;;;16.90;61.40;;;;;;5042731;28;1949;-66
2024/01/13 03:59:04;;;;;;;;;;;16.90;61.40;;;;;;5040121;28;1538;-68
2024/01/13 04:01:29;;;;;;;;;;;16.90;61.40;;;;;;5041961;28;1459;-68
2024/01/13 04:03:55;;;;;;;;;;;16.90;61.40;;;;;;5043356;28;1379;-68
2024/01/13 04:06:20;;;;;;;;;;;16.90;61.50;;;;;;5044926;28;1616;-68
2024/01/13 04:08:46;;;;;;;;;;;16.90;61.40;;;;;;5044493;28;1528;-69
2024/01/13 04:11:11;;;;;;;;;;;16.90;61.50;;;;;;5038750;28;1181;-69
2024/01/13 04:13:37;;;;;;;;;;;16.90;61.50;;;;;;5039256;28;1362;-68
2024/01/13 04:16:02;;;;;;;;;;;16.90;61.50;;;;;;5039205;28;1565;-69
2024/01/13 04:18:28;;;;;;;;;;;16.90;61.50;;;;;;5040873;28;1963;-68
2024/01/13 04:20:53;;;;;;;;;;;16.90;61.50;;;;;;5041235;28;1426;-69
2024/01/13 04:23:19;;;;;;;;;;;16.80;61.40;;;;;;5043160;28;1658;-68
2024/01/13 04:25:44;;;;;;;;;;;16.90;61.50;;;;;;5041349;28;1539;-68
2024/01/13 04:28:10;;;;;;;;;;;16.90;61.50;;;;;;5043489;28;1577;-69
2024/01/13 04:30:35;;;;;;;;;;;16.90;61.50;;;;;;5043139;28;1254;-69
2024/01/13 04:33:01;;;;;;;;;;;16.90;61.50;;;;;;5040057;28;1446;-69
2024/01/13 04:35:27;;;;;;;;;;;16.90;61.50;;;;;;5041707;28;1363;-69
2024/01/13 04:37:52;;;;;;;;;;;16.90;61.50;;;;;;5042908;28;1926;-68
2024/01/13 04:40:18;;;;;;;;;;;16.90;61.50;;;;;;5027806;28;1518;-69
2024/01/13 04:42:43;;;;;;;;;;;16.90;61.50;;;;;;5040377;28;1427;-69
2024/01/13 04:45:09;;;;;;;;;;;16.80;61.40;;;;;;5040693;28;1358;-68
2024/01/13 04:47:34;;;;;;;;;;;16.90;61.50;;;;;;5041770;28;1523;-68
2024/01/13 04:50:00;;;;;;;;;;;16.80;61.50;;;;;;5072889;28;1387;-68
2024/01/13 04:52:25;;;;;;;;;;;16.90;61.60;;;;;;5037247;28;1432;-68
2024/01/13 04:54:51;;;;;;;;;;;16.80;61.50;;;;;;5037576;28;1204;-68
2024/01/13 04:57:16;;;;;;;;;;;16.80;61.50;;;;;;5041662;28;1970;-68
2024/01/13 04:59:42;;;;;;;;;;;16.90;61.60;;;;;;5040159;28;1262;-69
2024/01/13 05:02:07;;;;;;;;;;;16.80;61.50;;;;;;5039735;28;1545;-68
2024/01/13 05:04:32;;;;;;;;;;;16.90;61.50;;;;;;5043486;28;1422;-68
2024/01/13 05:06:58;;;;;;;;;;;16.80;61.50;;;;;;5039844;28;1325;-68
2024/01/13 05:09:23;;;;;;;;;;;16.80;61.50;;;;;;5041854;28;1559;-68
2024/01/13 05:11:49;;;;;;;;;;;16.90;61.60;;;;;;5040198;28;1366;-68
2024/01/13 05:14:15;;;;;;;;;;;16.90;61.50;;;;;;5038798;28;1536;-68
2024/01/13 05:16:40;;;;;;;;;;;16.90;61.50;;;;;;5043084;28;1902;-68
2024/01/13 05:19:06;;;;;;;;;;;16.90;61.40;;;;;;5037987;28;1588;-68
2024/01/13 05:21:32;;;;;;;;;;;16.90;61.20;;;;;;5047408;28;935;-68
2024/01/13 05:23:57;;;;;;;;;;;17.00;61.20;;;;;;5037766;28;1443;-68
2024/01/13 05:26:23;;;;;;;;;;;17.00;61.00;;;;;;5039669;28;1307;-69
2024/01/13 05:28:48;;;;;;;;;;;17.00;60.90;;;;;;5039330;28;1594;-68
2024/01/13 05:31:14;;;;;;;;;;;17.10;60.80;;;;;;5039644;28;1626;-69
2024/01/13 05:33:40;;;;;;;;;;;17.10;60.70;;;;;;5041919;28;1333;-68
2024/01/13 05:36:05;;;;;;;;;;;17.10;60.50;;;;;;5038988;28;1262;-68
2024/01/13 05:38:31;;;;;;;;;;;17.20;60.40;;;;;;5041615;28;1963;-69
2024/01/13 05:40:56;;;;;;;;;;;17.20;60.30;;;;;;5040896;28;1565;-68
2024/01/13 05:43:22;;;;;;;;;;;17.20;60.30;;;;;;5069826;28;1260;-68
2024/01/13 05:45:47;;;;;;;;;;;17.30;60.20;;;;;;5046821;28;1137;-67
2024/01/13 05:48:12;;;;;;;;;;;17.30;60.20;;;;;;5040891;28;970;-68
2024/01/13 05:50:38;;;;;;;;;;;17.30;60.10;;;;;;5039869;28;1052;-68
2024/01/13 05:53:03;;;;;;;;;;;17.30;60.00;;;;;;5035224;28;1171;-68
2024/01/13 05:55:29;;;;;;;;;;;17.30;59.90;;;;;;5038517;28;1522;-68
2024/01/13 05:57:55;;;;;;;;;;;17.30;59.90;;;;;;5040232;28;1906;-68
2024/01/13 06:00:20;;;;;;;;;;;17.30;59.90;;;;;;5039215;28;1425;-68
2024/01/13 06:02:46;;;;;;;;;;;17.40;59.90;;;;;;5040616;28;1443;-68
2024/01/13 06:05:11;;;;;;;;;;;17.40;59.80;;;;;;5039220;28;1621;-68
2024/01/13 06:07:37;;;;;;;;;;;17.40;59.80;;;;;;5039013;28;1273;-68
2024/01/13 06:10:03;;;;;;;;;;;17.40;59.80;;;;;;5037490;28;1605;-68
2024/01/13 06:12:28;;;;;;;;;;;17.40;59.80;;;;;;5046618;28;1398;-68
2024/01/13 06:14:55;;;;;;;;;;;17.40;59.70;;;;;;5038448;28;1827;-68
2024/01/13 06:17:20;;;;;;;;;;;17.40;59.70;;;;;;5038456;28;1910;-68
2024/01/13 06:19:46;;;;;;;;;;;17.40;59.60;;;;;;5040422;28;1482;-69
2024/01/13 06:22:12;;;;;;;;;;;17.40;59.60;;;;;;5035514;28;1479;-68
2024/01/13 06:24:37;;;;;;;;;;;17.40;59.60;;;;;;5036462;28;1309;-68
2024/01/13 06:27:03;;;;;;;;;;;17.40;59.60;;;;;;5057226;28;1665;-68
2024/01/13 06:29:28;;;;;;;;;;;17.40;59.60;;;;;;5040369;28;1466;-68
2024/01/13 06:31:54;;;;;;;;;;;17.40;59.50;;;;;;5035621;28;1143;-68
2024/01/13 06:34:19;;;;;;;;;;;17.50;59.60;;;;;;5037660;28;1459;-68
2024/01/13 06:36:45;;;;;;;;;;;17.50;59.60;;;;;;5039728;28;1910;-69
2024/01/13 06:39:11;;;;;;;;;;;17.50;59.60;;;;;;5038559;28;1511;-68
2024/01/13 06:41:37;;;;;;;;;;;17.50;59.50;;;;;;5041897;28;1476;-68
2024/01/13 06:44:02;;;;;;;;;;;17.50;59.50;;;;;;5039518;28;1388;-68
2024/01/13 06:46:28;;;;;;;;;;;17.50;59.50;;;;;;5039090;28;1332;-69
2024/01/13 06:48:53;;;;;;;;;;;17.50;59.50;;;;;;5039102;28;1468;-68
2024/01/13 06:51:19;;;;;;;;;;;17.50;59.50;;;;;;5036566;28;1397;-68
2024/01/13 06:53:44;;;;;;;;;;;17.50;60.10;;;;;;5040193;28;1308;-68
2024/01/13 06:56:09;;;;;;;;;;;17.50;59.50;;;;;;5039477;28;1579;-69
2024/01/13 06:58:35;;;;;;;;;;;17.50;59.50;;;;;;5035958;28;1890;-68
2024/01/13 07:01:00;;;;;;;;;;;17.50;59.40;;;;;;5034840;28;1668;-68
2024/01/13 07:03:26;;;;;;;;;;;17.50;59.50;;;;;;5039269;28;1496;-68
2024/01/13 07:05:51;;;;;;;;;;;17.50;59.50;;;;;;5043558;28;1504;-68
2024/01/13 07:08:17;;;;;;;;;;;17.50;59.40;;;;;;5038163;28;1617;-68
2024/01/13 07:10:43;;;;;;;;;;;17.50;59.40;;;;;;5038296;28;1459;-68
2024/01/13 07:13:09;;;;;;;;;;;17.50;59.40;;;;;;5037251;28;1275;-68
2024/01/13 07:15:34;;;;;;;;;;;17.50;59.40;;;;;;5038583;28;1315;-68
2024/01/13 07:18:00;;;;;;;;;;;17.50;59.40;;;;;;5037132;28;1910;-68
2024/01/13 07:20:26;;;;;;;;;;;17.50;59.40;;;;;;5038274;28;1168;-68
2024/01/13 07:22:51;;;;;;;;;;;17.50;59.40;;;;;;5070692;28;1318;-66
2024/01/13 07:25:17;;;;;;;;;;;17.50;59.40;;;;;;5036895;28;1642;-67
2024/01/13 07:27:42;;;;;;;;;;;17.50;59.40;;;;;;5038525;28;1324;-66
2024/01/13 07:30:08;;;;;;;;;;;17.50;59.40;;;;;;5039546;28;1334;-67
2024/01/13 07:32:33;;;;;;;;;;;17.50;59.40;;;;;;5039410;28;1233;-67
2024/01/13 07:34:59;;;;;;;;;;;17.50;59.40;;;;;;5040035;28;1696;-69
2024/01/13 07:37:24;;;;;;;;;;;17.50;59.40;;;;;;5037277;28;1902;-67
2024/01/13 07:39:50;;;;;;;;;;;17.50;59.40;;;;;;5041767;28;1291;-69
2024/01/13 07:42:15;;;;;;;;;;;17.50;59.40;;;;;;5038562;28;1368;-68
2024/01/13 07:44:41;;;;;;;;;;;17.50;59.40;;;;;;5038887;28;1351;-67
2024/01/13 07:47:07;;;;;;;;;;;17.50;59.40;;;;;;5034702;28;2090;-66
2024/01/13 07:49:32;;;;;;;;;;;17.50;59.40;;;;;;5037025;28;2020;-67
2024/01/13 07:51:58;;;;;;;;;;;17.50;59.40;;;;;;5037539;28;1924;-67
2024/01/13 07:54:23;;;;;;;;;;;17.50;60.00;;;;;;5042100;28;2020;-66
2024/01/13 07:56:49;;;;;;;;;;;17.50;59.40;;;;;;5041905;28;1981;-66
2024/01/13 07:59:16;;;;;;;;;;;17.50;59.40;;;;;;5024168;28;1321;-67
2024/01/13 08:01:41;;;;;;;;;;;17.50;59.40;;;;;;5039978;28;1531;-66
2024/01/13 08:04:07;;;;;;;;;;;17.50;59.40;;;;;;5064299;28;2249;-66
2024/01/13 08:06:32;;;;;;;;;;;17.50;59.50;;;;;;5032994;28;1589;-66
2024/01/13 08:08:58;;;;;;;;;;;17.50;59.50;;;;;;5043892;28;1644;-66
2024/01/13 08:11:24;;;;;;;;;;;17.50;59.50;;;;;;5039926;28;2115;-67
2024/01/13 08:13:50;;;;;;;;;;;17.50;59.50;;;;;;5043090;28;1429;-65
2024/01/13 08:16:15;;;;;;;;;;;17.50;59.50;;;;;;5041085;28;1358;-66
2024/01/13 08:18:41;;;;;;;;;;;17.50;59.50;;;;;;5041504;28;1981;-67
2024/01/13 08:21:06;;;;;;;;;;;17.50;59.50;;;;;;5072788;28;1539;-66
2024/01/13 08:23:33;;;;;;;;;;;17.50;59.50;;;;;;5039417;28;1444;-67
2024/01/13 08:25:58;;;;;;;;;;;17.50;59.50;;;;;;5039368;28;1684;-66
2024/01/13 08:28:23;;;;;;;;;;;17.50;59.50;;;;;;5048440;28;1658;-67
2024/01/13 08:30:49;;;;;;;;;;;17.50;59.50;;;;;;5039778;28;1441;-68
2024/01/13 08:33:14;;;;;;;;;;;17.50;59.50;;;;;;5039084;28;1560;-66
2024/01/13 08:35:40;;;;;;;;;;;17.50;59.50;;;;;;5039771;28;1607;-66
2024/01/13 08:38:05;;;;;;;;;;;17.50;59.50;;;;;;5040200;28;1902;-69
2024/01/13 08:40:31;;;;;;;;;;;17.50;59.50;;;;;;5042271;28;1441;-66
2024/01/13 08:42:59;;;;;;;;;;;17.50;59.50;;;;;;5041564;28;1446;-66
2024/01/13 08:45:29;;;;;;;;;;;17.50;59.50;;;;;;5069242;28;1697;-66
2024/01/13 08:47:58;;;;;;;;;;;17.50;59.50;;;;;;5041416;28;1466;-68
2024/01/13 08:50:23;;;;;;;;;;;17.50;59.50;;;;;;5057306;28;1630;-66
2024/01/13 08:52:51;;;;;;;;;;;17.50;59.50;;;;;;5038568;28;1428;-66
2024/01/13 08:55:26;;;;;;;;;;;17.50;59.40;;;;;;5040009;28;1580;-66
2024/01/13 08:57:52;;;;;;;;;;;17.50;59.50;;;;;;5037160;28;1898;-67
2024/01/13 09:00:17;;;;;;;;;;;17.50;59.40;;;;;;5043172;28;982;-66
2024/01/13 09:02:43;;;;;;;;;;;17.50;59.40;;;;;;5041308;28;1066;-67
2024/01/13 09:05:08;;;;;;;;;;;17.50;59.40;;;;;;5070030;28;1495;-67
2024/01/13 09:07:34;;;;;;;;;;;17.50;59.40;;;;;;5072148;28;1059;-66
2024/01/13 09:09:59;;;;;;;;;;;17.60;59.50;;;;;;5041714;28;1184;-68
2024/01/13 09:12:25;;;;;;;;;;;17.50;59.40;;;;;;5040510;28;1299;-68
2024/01/13 09:14:51;;;;;;;;;;;17.50;59.40;;;;;;5071105;28;1569;-68
2024/01/13 09:17:16;;;;;;;;;;;17.60;59.40;;;;;;5041667;28;1909;-68
2024/01/13 09:19:42;;;;;;;;;;;17.50;59.30;;;;;;5039614;28;1197;-68
2024/01/13 09:22:07;;;;;;;;;;;17.50;59.30;;;;;;5039186;28;1604;-68
2024/01/13 09:24:33;;;;;;;;;;;17.50;59.30;;;;;;5039654;28;1467;-68
2024/01/13 09:26:58;;;;;;;;;;;17.60;59.40;;;;;;5040041;28;1734;-68
2024/01/13 09:29:24;;;;;;;;;;;17.60;59.40;;;;;;5040409;28;1782;-68
2024/01/13 09:31:49;;;;;;;;;;;17.60;59.30;;;;;;5038104;28;800;-68
2024/01/13 09:34:15;;;;;;;;;;;17.60;59.40;;;;;;5039586;28;1553;-68
2024/01/13 09:36:41;;;;;;;;;;;17.60;59.30;;;;;;5039797;28;1960;-67
2024/01/13 09:39:11;;;;;;;;;;;17.60;59.30;;;;;;5069387;28;1521;-67
2024/01/13 09:41:36;;;;;;;;;;;17.60;59.30;;;;;;5068223;28;1539;-67
2024/01/13 09:44:03;;;;;;;;;;;17.60;59.40;;;;;;5040693;28;1541;-67
2024/01/13 09:46:28;;;;;;;;;;;17.60;59.30;;;;;;5040857;28;1262;-67
2024/01/13 09:48:54;;;;;;;;;;;17.60;59.30;;;;;;5040447;28;1475;-67
2024/01/13 09:51:19;;;;;;;;;;;17.60;59.30;;;;;;5047058;28;1706;-67
2024/01/13 09:53:47;;;;;;;;;;;17.60;59.30;;;;;;5067814;28;1566;-67
2024/01/13 09:56:29;;;;;;;;;;;17.60;59.30;;;;;;5069031;28;1406;-67
2024/01/13 09:58:54;;;;;;;;;;;17.60;59.30;;;;;;5040013;28;1906;-67
2024/01/13 10:01:20;;;;;;;;;;;17.60;59.30;;;;;;5069869;28;1480;-67
2024/01/13 10:03:45;;;;;;;;;;;17.60;59.30;;;;;;5038732;28;1490;-67
2024/01/13 10:06:10;;;;;;;;;;;17.60;59.30;;;;;;5041520;28;1490;-67
2024/01/13 10:08:37;;;;;;;;;;;17.60;59.30;;;;;;5024120;28;1268;-67
2024/01/13 10:11:02;;;;;;;;;;;17.60;59.30;;;;;;5039300;28;1402;-67
2024/01/13 10:13:29;;;;;;;;;;;17.60;59.30;;;;;;5041017;28;1634;-67
2024/01/13 10:15:54;;;;;;;;;;;17.60;59.30;;;;;;5070714;28;1204;-67
2024/01/13 10:18:20;;;;;;;;;;;17.60;59.30;;;;;;5040955;28;1969;-67
2024/01/13 10:20:46;;;;;;;;;;;17.60;59.30;;;;;;5068729;28;1570;-67
2024/01/13 10:23:11;;;;;;;;;;;17.60;59.30;;;;;;5039120;28;1510;-67
2024/01/13 10:25:37;;;;;;;;;;;17.60;59.30;;;;;;5067750;28;1340;-67
2024/01/13 10:28:03;;;;;;;;;;;17.50;59.30;;;;;;5039223;28;1463;-67
2024/01/13 10:30:29;;;;;;;;;;;17.60;59.40;;;;;;5040002;28;1723;-67
2024/01/13 10:32:54;;;;;;;;;;;17.60;59.40;;;;;;5040163;28;1317;-67
2024/01/13 10:35:20;;;;;;;;;;;17.60;59.40;;;;;;5023860;28;1445;-67
2024/01/13 10:37:46;;;;;;;;;;;17.60;59.50;;;;;;5039634;28;1962;-67
2024/01/13 10:40:11;;;;;;;;;;;17.60;59.40;;;;;;5036698;28;1792;-67
2024/01/13 10:42:37;;;;;;;;;;;17.60;59.50;;;;;;5070605;28;1530;-67
2024/01/13 10:45:05;;;;;;;;;;;17.50;59.40;;;;;;5039806;28;1468;-67
2024/01/13 10:47:34;;;;;;;;;;;17.60;59.50;;;;;;5023060;28;1203;-67
2024/01/13 10:49:59;;;;;;;;;;;17.50;59.40;;;;;;5039498;28;1596;-67
2024/01/13 10:52:30;;;;;;;;;;;17.50;59.50;;;;;;5041283;28;1222;-67
2024/01/13 10:54:57;;;;;;;;;;;17.50;59.50;;;;;;5041020;28;1484;-67
2024/01/13 10:57:23;;;;;;;;;;;17.50;59.50;;;;;;5069505;28;1901;-67
2024/01/13 10:59:50;;;;;;;;;;;17.50;59.50;;;;;;5069726;28;1591;-67
2024/01/13 11:02:15;;;;;;;;;;;17.50;59.50;;;;;;5067709;28;1460;-67
2024/01/13 11:04:42;;;;;;;;;;;17.50;59.50;;;;;;5040377;28;1358;-67
2024/01/13 11:07:07;;;;;;;;;;;17.50;59.60;;;;;;5069049;28;1632;-67
2024/01/13 11:09:33;;;;;;;;;;;17.50;59.60;;;;;;5036941;28;1355;-67
2024/01/13 11:11:58;;;;;;;;;;;17.50;59.60;;;;;;5045482;28;1348;-67
2024/01/13 11:14:31;;;;;;;;;;;17.50;59.60;;;;;;5037955;28;1372;-67
2024/01/13 11:16:58;;;;;;;;;;;17.50;59.70;;;;;;5037385;28;1910;-67
2024/01/13 11:19:24;;;;;;;;;;;17.50;59.70;;;;;;5038172;28;1440;-67
2024/01/13 11:21:51;;;;;;;;;;;17.50;59.70;;;;;;5037274;28;1468;-67
2024/01/13 11:24:17;;;;;;;;;;;17.40;59.60;;;;;;5067996;28;1378;-67
2024/01/13 11:26:49;;;;;;;;;;;17.50;59.70;;;;;;5068977;28;1672;-67
2024/01/13 11:29:18;;;;;;;;;;;17.40;59.70;;;;;;5041205;28;1419;-67
2024/01/13 11:31:44;;;;;;;;;;;17.50;59.80;;;;;;5040532;28;1651;-67
2024/01/13 11:34:10;;;;;;;;;;;17.40;59.70;;;;;;5071179;28;2008;-67
2024/01/13 11:36:38;;;;;;;;;;;17.50;59.70;;;;;;5044115;28;2177;-68
2024/01/13 11:39:04;;;;;;;;;;;17.40;59.70;;;;;;5039426;28;1906;-68
2024/01/13 11:41:39;;;;;;;;;;;17.50;59.70;;;;;;5044627;28;1461;-68
2024/01/13 11:44:08;;;;;;;;;;;17.40;59.70;;;;;;5043814;28;1492;-68
2024/01/13 11:46:38;;;;;;;;;;;17.40;59.70;;;;;;5042169;28;1441;-68
2024/01/13 11:49:06;;;;;;;;;;;17.50;59.70;;;;;;5040404;28;1435;-68
2024/01/13 11:51:50;;;;;;;;;;;17.40;59.70;;;;;;5043043;28;1120;-68
2024/01/13 11:54:15;;;;;;;;;;;17.50;59.70;;;;;;5042492;28;1314;-68
2024/01/13 11:56:42;;;;;;;;;;;17.50;59.70;;;;;;5044883;28;1898;-69
2024/01/13 11:59:08;;;;;;;;;;;17.50;59.60;;;;;;5041721;28;1129;-69
2024/01/13 12:01:34;;;;;;;;;;;17.50;59.60;;;;;;5041714;28;1227;-69
2024/01/13 12:04:00;;;;;;;;;;;17.50;59.60;;;;;;5038478;28;1268;-69
2024/01/13 12:06:25;;;;;;;;;;;17.50;59.60;;;;;;5042206;28;1189;-69
2024/01/13 12:08:54;;;;;;;;;;;17.50;59.50;;;;;;5073685;28;1566;-69
2024/01/13 12:11:19;;;;;;;;;;;17.50;59.50;;;;;;5039616;28;1532;-69
2024/01/13 12:13:44;;;;;;;;;;;17.50;59.50;;;;;;5041324;28;1305;-69
2024/01/13 12:16:10;;;;;;;;;;;17.50;59.50;;;;;;5040497;28;1477;-69
2024/01/13 12:18:35;;;;;;;;;;;17.50;59.50;;;;;;5039765;28;1938;-69
2024/01/13 12:21:01;;;;;;;;;;;17.50;59.50;;;;;;5069781;28;1368;-69
2024/01/13 12:23:27;;;;;;;;;;;17.50;59.50;;;;;;5040831;28;1778;-69
2024/01/13 12:25:52;;;;;;;;;;;17.50;59.50;;;;;;5042102;28;1277;-69
2024/01/13 12:28:19;;;;;;;;;;;17.50;59.50;;;;;;5039239;28;1383;-69
2024/01/13 12:30:45;;;;;;;;;;;17.50;59.50;;;;;;5038101;28;1556;-69
2024/01/13 12:33:13;;;;;;;;;;;17.50;59.50;;;;;;5040744;28;1479;-69
2024/01/13 12:35:39;;;;;;;;;;;17.50;59.50;;;;;;5041699;28;1589;-69
2024/01/13 12:38:06;;;;;;;;;;;17.60;59.50;;;;;;5037194;28;1955;-69
2024/01/13 12:40:32;;;;;;;;;;;17.50;59.40;;;;;;5041925;28;1354;-69
2024/01/13 12:42:57;;;;;;;;;;;17.60;59.40;;;;;;5049703;28;1578;-69
2024/01/13 12:45:24;;;;;;;;;;;17.60;59.40;;;;;;5036944;28;1642;-69
2024/01/13 12:47:53;;;;;;;;;;;17.60;59.40;;;;;;5043604;28;1385;-69
2024/01/13 12:50:19;;;;;;;;;;;17.60;59.40;;;;;;5035107;28;1555;-69
2024/01/13 12:52:45;;;;;;;;;;;17.60;59.40;;;;;;5039433;28;1248;-69
2024/01/13 12:55:10;;;;;;;;;;;17.60;59.30;;;;;;5039060;28;1284;-69
2024/01/13 12:57:36;;;;;;;;;;;17.60;59.30;;;;;;5040198;28;1932;-69
2024/01/13 13:00:02;;;;;;;;;;;17.60;59.30;;;;;;5038663;28;1526;-69
2024/01/13 13:02:27;;;;;;;;;;;17.60;59.30;;;;;;5037100;28;1409;-69
2024/01/13 13:04:54;;;;;;;;;;;17.60;59.30;;;;;;5038175;28;1853;-69
2024/01/13 13:07:24;;;;;;;;;;;17.60;59.30;;;;;;5042001;28;1939;-69
2024/01/13 13:09:53;;;;;;;;;;;17.60;59.30;;;;;;5070505;28;1400;-69
2024/01/13 13:12:21;;;;;;;;;;;17.60;59.30;;;;;;5040539;28;1456;-69
2024/01/13 13:14:47;;;;;;;;;;;17.60;59.40;;;;;;5074704;28;1606;-69
2024/01/13 13:17:12;;;;;;;;;;;17.60;59.40;;;;;;5039550;28;1917;-69
2024/01/13 13:19:38;;;;;;;;;;;17.60;59.40;;;;;;5069838;28;1279;-69
2024/01/13 13:22:03;;;;;;;;;;;17.50;59.40;;;;;;5036947;28;1389;-69
2024/01/13 13:24:29;;;;;;;;;;;17.60;59.50;;;;;;5037528;28;1697;-69
2024/01/13 13:26:55;;;;;;;;;;;17.50;59.50;;;;;;5041690;28;1573;-69
2024/01/13 13:29:20;;;;;;;;;;;17.50;59.50;;;;;;5048684;28;1591;-69
2024/01/13 13:31:46;;;;;;;;;;;17.50;59.50;;;;;;5071510;28;1535;-69
2024/01/13 13:34:11;;;;;;;;;;;17.50;59.60;;;;;;5039680;28;1384;-69
2024/01/13 13:36:37;;;;;;;;;;;17.50;59.60;;;;;;5040617;28;1331;-69
2024/01/13 13:39:05;;;;;;;;;;;17.50;59.60;;;;;;5062504;28;1913;-69
2024/01/13 13:41:30;;;;;;;;;;;17.50;59.70;;;;;;5037520;28;1504;-69
2024/01/13 13:43:56;;;;;;;;;;;17.50;59.70;;;;;;5048051;28;1418;-69
2024/01/13 13:46:21;;;;;;;;;;;17.50;59.70;;;;;;5040965;28;1659;-69
2024/01/13 13:48:47;;;;;;;;;;;17.50;59.70;;;;;;5038895;28;1209;-69
2024/01/13 13:51:12;;;;;;;;;;;17.50;59.70;;;;;;5041044;28;1448;-69
2024/01/13 13:53:38;;;;;;;;;;;17.50;59.80;;;;;;5040152;28;1462;-69
2024/01/13 13:56:03;;;;;;;;;;;17.50;59.80;;;;;;5042189;28;1437;-69
2024/01/13 13:58:29;;;;;;;;;;;17.40;59.70;;;;;;5042292;28;1902;-69
2024/01/13 14:00:55;;;;;;;;;;;17.40;59.70;;;;;;5037616;28;1486;-69
2024/01/13 14:03:21;;;;;;;;;;;17.40;59.70;;;;;;5041873;28;1391;-69
2024/01/13 14:05:46;;;;;;;;;;;17.40;59.70;;;;;;5038863;28;1530;-69
2024/01/13 14:08:12;;;;;;;;;;;17.40;59.80;;;;;;5054624;28;1626;-69
2024/01/13 14:10:38;;;;;;;;;;;17.40;59.80;;;;;;5037140;28;1014;-69
2024/01/13 14:13:03;;;;;;;;;;;17.40;59.80;;;;;;5040093;28;1205;-69
2024/01/13 14:15:29;;;;;;;;;;;17.40;59.80;;;;;;5020840;28;1445;-69
2024/01/13 14:17:55;;;;;;;;;;;17.40;59.90;;;;;;5068637;28;1906;-69
2024/01/13 14:20:21;;;;;;;;;;;17.40;59.80;;;;;;5037257;28;1521;-69
2024/01/13 14:22:46;;;;;;;;;;;17.40;59.80;;;;;;5040458;28;1418;-69